Santa Rosa, Texas
Current Conditions -  °F | °C
As of 3:55 PM on Monday 20 Oct 2014 (Local Time) from KT65 Reporting Station
Overcast Overcast  
Wind Chill: 87°   Ceiling: 6000
Heat Index: 87°   Visibility: 10mi
Dew Point: 61°   Wind: 3mph
Humidity: 42%   Direction: 70°ENE
Pressure: 29.88"   Gusts: NA
Location:  26.26°N, 97.82°W
Report Text: KT65 202055Z AUTO 07003KT 10SM SCT050 BKN060 OVC080 31/16 A2988 RMK AO2 T03050162
Loading
Personal Weather Stations






























Interactive Weather Map
Tropical Storm Tracking
New forecast layout! Learn more

10-Day Weather Forecast

Advertisements
Track Severe Weather on mobile